• Join FlightAware (Why Join?)
  • Login
  • US Flag 
08:19AM EST


 

Airport Tracker/Info


-or-


 

Live Flight TrackerFlight Track Log ✈ SWA1761 ✈ 03-May-2014 ✈ KSMF - KSNA

Flight Track Log - Related Links

Times and Time Zones

All times are in EDT time to prevent confusion due to time zone crossing. See the SWA1761 flight status page for this flight to view local times or setup timezone preferences in your user account.

Time Position Orientation Groundspeed Altitude Reporting Facility
EDT Latitude Longitude Course Direction KTS MPH feet Rate Location/Type
01:55PM 38.6500 -121.5667 109° East 197 227 2,600  Level Northern Cal TRACON
01:56PM 38.6167 -121.5000 123° Southeast 252 290 5,000 2,640 Climbing Northern Cal TRACON
01:57PM 38.5667 -121.4167 127° Southeast 279 321 7,900 3,180 Climbing Northern Cal TRACON
01:58PM 38.5275 -121.3194 117° Southeast 293 337 12,100 3,360 Climbing Oakland Center
01:59PM 38.4817 -121.2206 121° Southeast 317 365 15,400 3,300 Climbing Oakland Center
02:00PM 38.3059 -120.9777 109° East  Level FlightAware Approximate
02:00PM 38.4294 -121.1075 120° Southeast 335 386 18,900  Level Oakland Center
02:01PM 38.3783 -120.9978 121° Southeast 355 409 21,900 2,040 Climbing Oakland Center
02:02PM 38.3219 -120.8797 121° Southeast 388 447 23,200 1,920 Climbing Oakland Center
02:03PM 38.2486 -120.7233 121° Southeast 424 488 25,900 2,340 Climbing Oakland Center
02:04PM 38.1608 -120.6206 137° Southeast 432 497 28,100 1,920 Climbing Oakland Center
02:05PM 38.0472 -120.5667 160° South 432 497 29,900 1,740 Climbing Oakland Center
02:06PM 37.9303 -120.5119 160° South 444 511 31,700 1,920 Climbing Oakland Center
02:07PM 37.8142 -120.4561 159° South 444 511 33,900 1,860 Climbing Oakland Center
02:08PM 37.6997 -120.4033 160° South 442 509 35,600 1,560 Climbing Oakland Center
02:09PM 37.5864 -120.3486 159° South 437 503 37,200 1,440 Climbing Oakland Center
02:10PM 37.4714 -120.2975 161° South 437 503 38,600 840 Climbing Oakland Center
02:11PM 37.3586 -120.2422 159° South 437 503 39,000 180 Climbing Oakland Center
02:12PM 37.2217 -120.1789 160° South 436 502 39,000  Level Oakland Center
02:13PM 37.1072 -120.1286 161° South 436 502 39,000  Level Oakland Center
02:14PM 37.0036 -120.0786 159° South 436 502 39,000  Level Oakland Center
02:15PM 36.8914 -120.0250 159° South 435 501 39,000  Level Oakland Center
02:16PM 36.7781 -119.9767 161° South 434 499 39,000  Level Oakland Center
02:17PM 36.6428 -119.9150 160° South 432 497 39,000  Level Oakland Center
02:18PM 36.5286 -119.8633 160° South 432 497 39,000  Level Oakland Center
02:19PM 36.4161 -119.8117 160° South 432 497 39,000  Level Oakland Center
02:20PM 36.3022 -119.7603 160° South 433 498 39,000  Level Oakland Center
02:21PM 36.1889 -119.7075 159° South 433 498 39,000  Level Oakland Center
02:22PM 36.0744 -119.6578 161° South 434 499 39,000  Level Oakland Center
02:23PM 35.9592 -119.6161 164° South 434 499 39,000  Level Oakland Center
02:24PM 35.8422 -119.6211 182° South 421 484 39,000  Level Oakland Center
02:25PM 35.7258 -119.6256 182° South 419 482 39,000  Level Oakland Center
02:26PM 35.5850 -119.6311 182° South 421 484 39,000  Level Los Angeles Center
02:27PM 35.4672 -119.6344 181° South 421 484 39,000  Level Los Angeles Center
02:28PM 35.3500 -119.6383 182° South 420 483 39,000  Level Los Angeles Center
02:30PM 35.2336 -119.6194 172° South 429 494 39,000  Level Los Angeles Center
02:31PM 35.1331 -119.5356 146° Southeast 438 504 39,000 -1,020 Level Los Angeles Center
02:32PM 35.0342 -119.4506 145° Southeast 438 504 37,000 -2,160 Descending Los Angeles Center
02:34PM 34.8375 -119.2853 145° Southeast 432 497 32,500 -2,220 Descending Oakland Center
02:35PM 34.7239 -119.1878 145° Southeast 418 481 30,200 -1,980 Descending Los Angeles Center
02:36PM 34.6308 -119.1108 146° Southeast 413 475 28,400 -1,800 Descending Los Angeles Center
02:37PM 34.5381 -119.0344 146° Southeast 407 468 26,500 -1,800 Descending Los Angeles Center
02:38PM 34.4489 -118.9600 145° Southeast 393 452 24,700 -1,920 Descending Los Angeles Center
02:39PM 34.3450 -118.8783 147° Southeast 364 419 22,600 -1,920 Descending Los Angeles Center
02:40PM 34.2508 -118.8428 163° South 353 406 20,800 -1,740 Descending Los Angeles Center
02:41PM 34.1592 -118.8081 163° South 348 400 19,100 -1,740 Descending Los Angeles Center
02:42PM 34.0633 -118.7725 163° South 335 386 17,300 -1,800 Descending Los Angeles Center
02:43PM 33.9758 -118.7419 164° South 327 376 15,500 -1,620 Descending Los Angeles Center
02:44PM 33.8836 -118.7069 163° South 325 374 14,000 -780 Descending Los Angeles Center
02:45PM 33.7953 -118.6756 164° South 324 373 14,000 -360 Level Los Angeles Center
02:46PM 33.7094 -118.6453 164° South 325 374 13,300 -840 Descending Los Angeles Center
02:47PM 33.6261 -118.6164 164° South 318 366 12,300 -1,080 Descending Los Angeles Center
02:48PM 33.5517 -118.5678 151° Southeast 312 359 11,100 -1,440 Descending Los Angeles Center
02:49PM 33.4833 -118.4878 136° Southeast 306 352 9,400 -1,500 Descending Los Angeles Center
02:50PM 33.4647 -118.3919 103° East 300 345 8,000 -1,440 Descending Los Angeles Center
02:51PM 33.4472 -118.2975 102° East 298 343 6,500 -1,260 Descending Los Angeles Center
02:52PM 33.4847 -118.2186 60° Northeast 290 334 5,400 -780 Descending Los Angeles Center
02:53PM 33.5467 -118.1369 48° Northeast 282 325 5,000 -240 Descending Los Angeles Center
02:54PM 33.5964 -118.0819 43° Northeast 258 297 5,000  Level Los Angeles Center
02:55PM 33.6439 -118.0278 44° Northeast 242 278 5,000  Level Los Angeles Center
02:56PM 33.6833 -117.9833 43° Northeast 234 269 5,000 -60 Level Southern California TRACON
02:57PM 33.7333 -117.9167 48° Northeast 228 262 4,900 -840 Descending Southern California TRACON
02:58PM 33.7667 -117.8667 51° Northeast 195 224 3,400 -1,440 Descending Southern California TRACON
02:59PM 33.7500 -117.8167 112° Southeast 185 213 2,000 -1,320 Descending Southern California TRACON
03:00PM 33.7167 -117.8500 220° Southwest 118 136 800 -900 Descending Southern California TRACON
03:01PM 33.6833 -117.8667 203° Southwest 123 142 200 -600 Descending Southern California TRACON
03:04PM 33.6757 -117.8682 207° Southwest  Level Estimated